KINT/INT METAR and TAF weather

Enter ICAO airport designator
Station Type Date Time Source
KINT METAR 2019/04/22 19:54 UTC NOAA

KINT 221954Z 00000KT 10SM CLR 22/06 A3012 RMK AO2 SLP194 T02220061


Station Type Date Time Source
KINT Decoded METAR 2019/04/22 19:54 UTC NOAA

WINSTON SALEM SMITH REYNOLDS, NC, United States (KINT) 36-08N 80-14W 291M
Apr 22, 2019 - 03:54 PM EDT / 2019.04.22 1954 UTC
Wind: Calm:0
Visibility: 10 mile(s):0
Sky conditions: clear
Temperature: 72.0 F (22.2 C)
Dew Point: 43.0 F (6.1 C)
Relative Humidity: 35%
Pressure (altimeter): 30.12 in. Hg (1019 hPa)
ob: KINT 221954Z 00000KT 10SM CLR 22/06 A3012 RMK AO2 SLP194 T02220061
cycle: 20

Station Type Date Time Source
KINT TAF 2019/04/22 18:22 UTC NOAA

TAF KINT 221720Z 2218/2318 VRB04KT P6SM SKC
FM231500 23006KT P6SM SKC

Example: see airport list